AirportContent of METAR report
LYBEMETAR LYBE 170530Z 18004KT CAVOK 01/M03 Q1016 NOSIG=
LYBTMETAR LYBT 170530Z 10002KT CAVOK M04/M05 Q1016 NOSIG=
LYKVMETAR LYKV 170530Z VRB01KT 2000 0600SW BR PRFG NSC M10/M11 Q1018 TEMPO 0800 FZFG=
LYNIMETAR LYNI 170530Z 10004KT 5000 BR NSC M07/M07 Q1020 R11/2///95 NOSIG=
LYVRMETAR LYVR 170530Z 17013G23KT CAVOK 05/M04 Q1016 NOSIG=
LYUZMETAR LYUZ 170530Z AUTO 24008KT 180V290 CAVOK 00/M05 Q1015=
LYPGMETAR LYPG 170530Z VRB01KT 8000 FEW080 M03/M04 Q1023 NOSIG=
LYTVMETAR LYTV 170600Z VRB02KT 9999 FEW040 SCT050 M00/M01 Q1022 NOSIG=

Data loaded: 2019-01-17 05:58:53 UTC

METAR, TAF, AIRMET, GAMET, SIGMET

Important note: MET information on these web pages are informative and restricted to aeronautical users, must not be used for any commercial purpose, and do not replace flight documentation.